sensor_id;sensor_type;location;lat;lon;timestamp;pressure;altitude;pressure_sealevel;temperature;humidity
32638;BME280;19045;52.268;10.506;2022-08-19T00:00:50;100248.69;;;21.72;88.23
32638;BME280;19045;52.268;10.506;2022-08-19T00:03:17;100242.28;;;21.67;89.07
32638;BME280;19045;52.268;10.506;2022-08-19T00:05:44;100247.28;;;21.65;88.58
32638;BME280;19045;52.268;10.506;2022-08-19T00:08:11;100244.56;;;21.65;89.64
32638;BME280;19045;52.268;10.506;2022-08-19T00:10:37;100242.97;;;21.64;89.08
32638;BME280;19045;52.268;10.506;2022-08-19T00:13:04;100239.09;;;21.65;89.18
32638;BME280;19045;52.268;10.506;2022-08-19T00:15:32;100239.44;;;21.64;88.92
32638;BME280;19045;52.268;10.506;2022-08-19T00:17:59;100248.91;;;21.67;88.47
32638;BME280;19045;52.268;10.506;2022-08-19T00:20:26;100247.50;;;21.60;88.90
32638;BME280;19045;52.268;10.506;2022-08-19T00:22:53;100254.44;;;21.58;89.78
32638;BME280;19045;52.268;10.506;2022-08-19T00:25:20;100253.66;;;21.57;88.89
32638;BME280;19045;52.268;10.506;2022-08-19T00:27:46;100250.44;;;21.55;88.89
32638;BME280;19045;52.268;10.506;2022-08-19T00:30:13;100252.59;;;21.50;89.08
32638;BME280;19045;52.268;10.506;2022-08-19T00:32:42;100258.44;;;21.40;90.40
32638;BME280;19045;52.268;10.506;2022-08-19T00:35:09;100256.84;;;21.39;89.83
32638;BME280;19045;52.268;10.506;2022-08-19T00:37:37;100250.38;;;21.43;89.11
32638;BME280;19045;52.268;10.506;2022-08-19T00:40:05;100257.78;;;21.43;89.40
32638;BME280;19045;52.268;10.506;2022-08-19T00:42:33;100258.59;;;21.43;89.39
32638;BME280;19045;52.268;10.506;2022-08-19T00:45:00;100270.09;;;21.49;88.75
32638;BME280;19045;52.268;10.506;2022-08-19T00:47:26;100266.72;;;21.52;88.27
32638;BME280;19045;52.268;10.506;2022-08-19T00:49:57;100256.94;;;21.51;89.60
32638;BME280;19045;52.268;10.506;2022-08-19T00:52:27;100246.09;;;21.54;88.28
32638;BME280;19045;52.268;10.506;2022-08-19T00:54:56;100241.69;;;21.62;88.29
32638;BME280;19045;52.268;10.506;2022-08-19T00:57:27;100239.09;;;21.65;87.47
32638;BME280;19045;52.268;10.506;2022-08-19T00:59:55;100236.22;;;21.62;86.42
32638;BME280;19045;52.268;10.506;2022-08-19T01:02:23;100236.31;;;21.53;87.41
32638;BME280;19045;52.268;10.506;2022-08-19T01:04:50;100226.19;;;21.54;86.21
32638;BME280;19045;52.268;10.506;2022-08-19T01:07:18;100232.31;;;21.51;86.96
32638;BME280;19045;52.268;10.506;2022-08-19T01:09:46;100236.97;;;21.50;86.74
32638;BME280;19045;52.268;10.506;2022-08-19T01:12:12;100223.06;;;21.43;86.84
32638;BME280;19045;52.268;10.506;2022-08-19T01:14:39;100235.78;;;21.39;87.30
32638;BME280;19045;52.268;10.506;2022-08-19T01:17:08;100242.06;;;21.40;87.47
32638;BME280;19045;52.268;10.506;2022-08-19T01:19:37;100244.19;;;21.34;86.94
32638;BME280;19045;52.268;10.506;2022-08-19T01:22:10;100242.09;;;21.31;86.59
32638;BME280;19045;52.268;10.506;2022-08-19T01:24:40;100233.66;;;21.24;87.60
32638;BME280;19045;52.268;10.506;2022-08-19T01:27:07;100231.16;;;21.31;87.63
32638;BME280;19045;52.268;10.506;2022-08-19T01:29:38;100233.44;;;21.29;87.63
32638;BME280;19045;52.268;10.506;2022-08-19T01:32:05;100235.50;;;21.32;86.48
32638;BME280;19045;52.268;10.506;2022-08-19T01:34:32;100237.97;;;21.25;88.22
32638;BME280;19045;52.268;10.506;2022-08-19T01:36:59;100234.56;;;21.28;86.71
32638;BME280;19045;52.268;10.506;2022-08-19T01:39:27;100236.19;;;21.29;86.67
32638;BME280;19045;52.268;10.506;2022-08-19T01:41:55;100233.31;;;21.26;87.56
32638;BME280;19045;52.268;10.506;2022-08-19T01:44:22;100234.31;;;21.21;86.72
32638;BME280;19045;52.268;10.506;2022-08-19T01:46:51;100228.50;;;21.23;86.44
32638;BME280;19045;52.268;10.506;2022-08-19T01:49:20;100226.97;;;21.13;86.75
32638;BME280;19045;52.268;10.506;2022-08-19T01:51:48;100222.63;;;21.12;87.75
32638;BME280;19045;52.268;10.506;2022-08-19T01:54:17;100214.84;;;21.23;86.77
32638;BME280;19045;52.268;10.506;2022-08-19T01:56:44;100216.25;;;21.29;86.63
32638;BME280;19045;52.268;10.506;2022-08-19T01:59:15;100223.59;;;21.37;86.94
32638;BME280;19045;52.268;10.506;2022-08-19T02:01:43;100220.63;;;21.42;85.94
32638;BME280;19045;52.268;10.506;2022-08-19T02:04:09;100211.63;;;21.41;85.57
32638;BME280;19045;52.268;10.506;2022-08-19T02:06:36;100208.44;;;21.39;86.14
32638;BME280;19045;52.268;10.506;2022-08-19T02:09:05;100205.72;;;21.39;85.58
32638;BME280;19045;52.268;10.506;2022-08-19T02:11:34;100212.13;;;21.43;85.44
32638;BME280;19045;52.268;10.506;2022-08-19T02:14:02;100217.22;;;21.45;84.77
32638;BME280;19045;52.268;10.506;2022-08-19T02:16:32;100222.66;;;21.53;84.58
32638;BME280;19045;52.268;10.506;2022-08-19T02:18:59;100219.78;;;21.50;83.77
32638;BME280;19045;52.268;10.506;2022-08-19T02:21:26;100220.78;;;21.45;84.95
32638;BME280;19045;52.268;10.506;2022-08-19T02:23:53;100218.53;;;21.47;83.77
32638;BME280;19045;52.268;10.506;2022-08-19T02:26:21;100227.13;;;21.37;84.70
32638;BME280;19045;52.268;10.506;2022-08-19T02:28:48;100226.06;;;21.30;85.26
32638;BME280;19045;52.268;10.506;2022-08-19T02:31:18;100218.53;;;21.27;85.12
32638;BME280;19045;52.268;10.506;2022-08-19T02:33:47;100219.19;;;21.24;84.51
32638;BME280;19045;52.268;10.506;2022-08-19T02:36:16;100211.66;;;21.21;85.56
32638;BME280;19045;52.268;10.506;2022-08-19T02:38:43;100217.25;;;21.24;85.11
32638;BME280;19045;52.268;10.506;2022-08-19T02:41:13;100212.13;;;21.23;84.39
32638;BME280;19045;52.268;10.506;2022-08-19T02:43:41;100206.41;;;21.07;85.53
32638;BME280;19045;52.268;10.506;2022-08-19T02:46:12;100204.81;;;21.06;86.48
32638;BME280;19045;52.268;10.506;2022-08-19T02:48:39;100206.88;;;21.09;84.84
32638;BME280;19045;52.268;10.506;2022-08-19T02:51:08;100211.94;;;20.98;85.28
32638;BME280;19045;52.268;10.506;2022-08-19T02:53:34;100208.47;;;20.89;86.93
32638;BME280;19045;52.268;10.506;2022-08-19T02:56:06;100211.19;;;20.89;86.52
32638;BME280;19045;52.268;10.506;2022-08-19T02:58:33;100207.47;;;20.94;86.89
32638;BME280;19045;52.268;10.506;2022-08-19T03:01:00;100214.00;;;21.01;85.83
32638;BME280;19045;52.268;10.506;2022-08-19T03:03:27;100213.53;;;20.99;85.50
32638;BME280;19045;52.268;10.506;2022-08-19T03:06:08;100210.81;;;20.99;85.94
32638;BME280;19045;52.268;10.506;2022-08-19T03:08:36;100208.88;;;21.00;86.13
32638;BME280;19045;52.268;10.506;2022-08-19T03:11:03;100210.22;;;20.94;85.53
32638;BME280;19045;52.268;10.506;2022-08-19T03:13:31;100220.19;;;20.90;86.56
32638;BME280;19045;52.268;10.506;2022-08-19T03:15:59;100214.44;;;20.83;86.49
32638;BME280;19045;52.268;10.506;2022-08-19T03:18:26;100234.72;;;20.73;86.79
32638;BME280;19045;52.268;10.506;2022-08-19T03:20:53;100239.09;;;20.66;87.74
32638;BME280;19045;52.268;10.506;2022-08-19T03:23:22;100236.38;;;20.66;88.26
32638;BME280;19045;52.268;10.506;2022-08-19T03:25:50;100229.66;;;20.63;86.99
32638;BME280;19045;52.268;10.506;2022-08-19T03:28:18;100233.19;;;20.55;87.34
32638;BME280;19045;52.268;10.506;2022-08-19T03:30:55;100231.13;;;20.52;87.66
32638;BME280;19045;52.268;10.506;2022-08-19T03:33:23;100223.88;;;20.56;88.14
32638;BME280;19045;52.268;10.506;2022-08-19T03:36:00;100234.59;;;20.70;86.87
32638;BME280;19045;52.268;10.506;2022-08-19T03:38:28;100234.66;;;20.61;86.73
32638;BME280;19045;52.268;10.506;2022-08-19T03:40:55;100235.56;;;20.65;86.80
32638;BME280;19045;52.268;10.506;2022-08-19T03:43:21;100243.75;;;20.65;87.22
32638;BME280;19045;52.268;10.506;2022-08-19T03:45:48;100234.50;;;20.57;86.54
32638;BME280;19045;52.268;10.506;2022-08-19T03:48:16;100237.88;;;20.54;87.78
32638;BME280;19045;52.268;10.506;2022-08-19T03:50:43;100236.56;;;20.60;87.16
32638;BME280;19045;52.268;10.506;2022-08-19T03:53:09;100243.28;;;20.63;86.85
32638;BME280;19045;52.268;10.506;2022-08-19T03:55:40;100235.31;;;20.58;86.46
32638;BME280;19045;52.268;10.506;2022-08-19T03:58:07;100244.63;;;20.48;86.99
32638;BME280;19045;52.268;10.506;2022-08-19T04:00:36;100237.44;;;20.44;86.72
32638;BME280;19045;52.268;10.506;2022-08-19T04:03:03;100230.88;;;20.36;88.53
32638;BME280;19045;52.268;10.506;2022-08-19T04:05:30;100233.91;;;20.43;88.69
32638;BME280;19045;52.268;10.506;2022-08-19T04:07:56;100226.66;;;20.47;87.38
32638;BME280;19045;52.268;10.506;2022-08-19T04:10:24;100239.09;;;20.66;86.44
32638;BME280;19045;52.268;10.506;2022-08-19T04:12:52;100236.06;;;20.67;86.03
32638;BME280;19045;52.268;10.506;2022-08-19T04:15:19;100239.75;;;20.62;84.79
32638;BME280;19045;52.268;10.506;2022-08-19T04:17:46;100240.63;;;20.54;86.66
32638;BME280;19045;52.268;10.506;2022-08-19T04:20:13;100248.81;;;20.46;86.13
32638;BME280;19045;52.268;10.506;2022-08-19T04:22:39;100258.97;;;20.37;86.05
32638;BME280;19045;52.268;10.506;2022-08-19T04:25:06;100259.28;;;20.35;88.00
32638;BME280;19045;52.268;10.506;2022-08-19T04:27:33;100254.81;;;20.31;86.70
32638;BME280;19045;52.268;10.506;2022-08-19T04:30:02;100257.88;;;20.29;87.05
32638;BME280;19045;52.268;10.506;2022-08-19T04:32:29;100266.22;;;20.16;87.57
32638;BME280;19045;52.268;10.506;2022-08-19T04:34:57;100254.84;;;20.13;88.65
32638;BME280;19045;52.268;10.506;2022-08-19T04:37:24;100262.84;;;20.10;88.94
32638;BME280;19045;52.268;10.506;2022-08-19T04:39:51;100259.47;;;20.13;89.41
32638;BME280;19045;52.268;10.506;2022-08-19T04:42:35;100266.69;;;20.18;86.87
32638;BME280;19045;52.268;10.506;2022-08-19T04:45:08;100257.88;;;20.21;86.58
32638;BME280;19045;52.268;10.506;2022-08-19T04:47:36;100267.78;;;20.25;87.47
32638;BME280;19045;52.268;10.506;2022-08-19T04:50:03;100266.22;;;20.16;87.46
32638;BME280;19045;52.268;10.506;2022-08-19T04:52:30;100269.41;;;20.26;87.33
32638;BME280;19045;52.268;10.506;2022-08-19T04:54:58;100268.31;;;20.27;86.35
32638;BME280;19045;52.268;10.506;2022-08-19T04:57:25;100263.66;;;20.28;86.83
32638;BME280;19045;52.268;10.506;2022-08-19T04:59:54;100262.31;;;20.25;86.88
32638;BME280;19045;52.268;10.506;2022-08-19T05:02:22;100255.13;;;20.21;87.11
32638;BME280;19045;52.268;10.506;2022-08-19T05:04:50;100258.47;;;20.26;86.15
32638;BME280;19045;52.268;10.506;2022-08-19T05:07:17;100261.41;;;20.30;86.77
32638;BME280;19045;52.268;10.506;2022-08-19T05:09:44;100254.78;;;20.48;85.34
32638;BME280;19045;52.268;10.506;2022-08-19T05:12:10;100251.69;;;20.49;85.43
32638;BME280;19045;52.268;10.506;2022-08-19T05:14:37;100244.69;;;20.40;85.22
32638;BME280;19045;52.268;10.506;2022-08-19T05:17:04;100235.88;;;20.34;85.02
32638;BME280;19045;52.268;10.506;2022-08-19T05:19:32;100237.66;;;20.30;86.74
32638;BME280;19045;52.268;10.506;2022-08-19T05:22:16;100239.91;;;20.28;86.85
32638;BME280;19045;52.268;10.506;2022-08-19T05:25:06;100246.94;;;20.29;86.35
32638;BME280;19045;52.268;10.506;2022-08-19T05:27:34;100250.94;;;20.32;85.63
32638;BME280;19045;52.268;10.506;2022-08-19T05:30:01;100253.03;;;20.26;86.12
32638;BME280;19045;52.268;10.506;2022-08-19T05:32:28;100253.22;;;20.21;86.04
32638;BME280;19045;52.268;10.506;2022-08-19T05:34:56;100252.56;;;20.24;87.30
32638;BME280;19045;52.268;10.506;2022-08-19T05:37:23;100252.06;;;20.22;86.29
32638;BME280;19045;52.268;10.506;2022-08-19T05:39:52;100256.28;;;20.28;86.60
32638;BME280;19045;52.268;10.506;2022-08-19T05:42:20;100261.84;;;20.32;85.50
32638;BME280;19045;52.268;10.506;2022-08-19T05:44:47;100259.94;;;20.32;86.08
32638;BME280;19045;52.268;10.506;2022-08-19T05:47:14;100264.88;;;20.39;84.92
32638;BME280;19045;52.268;10.506;2022-08-19T05:49:44;100272.31;;;20.30;85.18
32638;BME280;19045;52.268;10.506;2022-08-19T05:52:13;100267.78;;;20.25;85.75
32638;BME280;19045;52.268;10.506;2022-08-19T05:54:42;100264.75;;;20.35;84.67
32638;BME280;19045;52.268;10.506;2022-08-19T05:57:10;100264.22;;;20.42;84.93
32638;BME280;19045;52.268;10.506;2022-08-19T05:59:37;100259.13;;;20.40;85.50
32638;BME280;19045;52.268;10.506;2022-08-19T06:02:05;100268.78;;;20.29;85.12
32638;BME280;19045;52.268;10.506;2022-08-19T06:04:33;100265.88;;;20.34;86.35
32638;BME280;19045;52.268;10.506;2022-08-19T06:06:59;100260.38;;;20.43;85.29
32638;BME280;19045;52.268;10.506;2022-08-19T06:09:28;100270.94;;;20.53;84.46
32638;BME280;19045;52.268;10.506;2022-08-19T06:11:56;100274.19;;;20.46;84.38
32638;BME280;19045;52.268;10.506;2022-08-19T06:14:30;100274.69;;;20.40;84.52
32638;BME280;19045;52.268;10.506;2022-08-19T06:16:58;100270.03;;;20.40;84.74
32638;BME280;19045;52.268;10.506;2022-08-19T06:19:28;100274.78;;;20.52;83.75
32638;BME280;19045;52.268;10.506;2022-08-19T06:21:56;100271.59;;;20.50;84.18
32638;BME280;19045;52.268;10.506;2022-08-19T06:24:25;100282.47;;;20.58;83.89
32638;BME280;19045;52.268;10.506;2022-08-19T06:26:55;100288.38;;;20.69;83.34
32638;BME280;19045;52.268;10.506;2022-08-19T06:29:24;100288.09;;;20.62;82.35
32638;BME280;19045;52.268;10.506;2022-08-19T06:31:53;100286.97;;;20.63;83.38
32638;BME280;19045;52.268;10.506;2022-08-19T06:34:21;100293.84;;;20.69;83.10
32638;BME280;19045;52.268;10.506;2022-08-19T06:36:51;100296.13;;;20.67;82.18
32638;BME280;19045;52.268;10.506;2022-08-19T06:39:20;100298.09;;;20.58;82.48
32638;BME280;19045;52.268;10.506;2022-08-19T06:41:49;100303.41;;;20.46;83.40
32638;BME280;19045;52.268;10.506;2022-08-19T06:44:18;100306.16;;;20.29;84.01
32638;BME280;19045;52.268;10.506;2022-08-19T06:46:45;100310.19;;;20.31;83.97
32638;BME280;19045;52.268;10.506;2022-08-19T06:49:14;100312.13;;;20.31;83.37
32638;BME280;19045;52.268;10.506;2022-08-19T06:51:42;100313.06;;;20.26;83.26
32638;BME280;19045;52.268;10.506;2022-08-19T06:54:09;100313.69;;;20.23;83.11
32638;BME280;19045;52.268;10.506;2022-08-19T06:56:37;100313.38;;;20.16;83.97
32638;BME280;19045;52.268;10.506;2022-08-19T06:59:05;100316.59;;;20.09;84.15
32638;BME280;19045;52.268;10.506;2022-08-19T07:01:36;100329.13;;;20.10;85.07
32638;BME280;19045;52.268;10.506;2022-08-19T07:04:04;100329.75;;;20.16;84.36
32638;BME280;19045;52.268;10.506;2022-08-19T07:06:31;100331.88;;;20.28;82.80
32638;BME280;19045;52.268;10.506;2022-08-19T07:08:58;100331.88;;;20.28;82.13
32638;BME280;19045;52.268;10.506;2022-08-19T07:11:25;100338.75;;;20.17;83.15
32638;BME280;19045;52.268;10.506;2022-08-19T07:13:52;100338.91;;;20.03;82.75
32638;BME280;19045;52.268;10.506;2022-08-19T07:16:20;100340.84;;;20.02;83.55
32638;BME280;19045;52.268;10.506;2022-08-19T07:18:49;100346.44;;;19.89;83.85
32638;BME280;19045;52.268;10.506;2022-08-19T07:21:19;100348.88;;;19.90;83.76
32638;BME280;19045;52.268;10.506;2022-08-19T07:23:47;100356.25;;;19.90;83.61
32638;BME280;19045;52.268;10.506;2022-08-19T07:26:16;100352.88;;;19.93;85.16
32638;BME280;19045;52.268;10.506;2022-08-19T07:28:44;100360.56;;;19.99;84.18
32638;BME280;19045;52.268;10.506;2022-08-19T07:31:13;100363.47;;;20.03;83.05
32638;BME280;19045;52.268;10.506;2022-08-19T07:33:41;100364.41;;;20.07;82.86
32638;BME280;19045;52.268;10.506;2022-08-19T07:36:11;100360.88;;;20.06;83.28
32638;BME280;19045;52.268;10.506;2022-08-19T07:38:40;100362.19;;;20.18;83.31
32638;BME280;19045;52.268;10.506;2022-08-19T07:41:09;100377.25;;;20.24;81.42
32638;BME280;19045;52.268;10.506;2022-08-19T07:43:36;100375.34;;;20.24;82.53
32638;BME280;19045;52.268;10.506;2022-08-19T07:46:02;100381.75;;;20.37;81.14
32638;BME280;19045;52.268;10.506;2022-08-19T07:48:30;100392.22;;;20.35;82.19
32638;BME280;19045;52.268;10.506;2022-08-19T07:50:58;100401.97;;;20.36;81.53
32638;BME280;19045;52.268;10.506;2022-08-19T07:53:29;100402.28;;;20.43;81.94
32638;BME280;19045;52.268;10.506;2022-08-19T07:55:56;100400.69;;;20.50;80.97
32638;BME280;19045;52.268;10.506;2022-08-19T07:58:24;100399.38;;;20.56;81.19
32638;BME280;19045;52.268;10.506;2022-08-19T08:00:52;100393.59;;;20.67;80.33
32638;BME280;19045;52.268;10.506;2022-08-19T08:03:20;100404.63;;;20.79;79.55
32638;BME280;19045;52.268;10.506;2022-08-19T08:06:09;100403.19;;;20.81;78.69
32638;BME280;19045;52.268;10.506;2022-08-19T08:08:54;100408.00;;;20.76;79.47
32638;BME280;19045;52.268;10.506;2022-08-19T08:11:52;100408.50;;;20.69;79.67
32638;BME280;19045;52.268;10.506;2022-08-19T08:14:25;100409.31;;;20.70;79.56
32638;BME280;19045;52.268;10.506;2022-08-19T08:16:58;100404.47;;;20.75;79.09
32638;BME280;19045;52.268;10.506;2022-08-19T08:19:27;100395.97;;;20.77;80.52
32638;BME280;19045;52.268;10.506;2022-08-19T08:21:55;100398.00;;;20.88;79.12
32638;BME280;19045;52.268;10.506;2022-08-19T08:24:24;100394.94;;;20.98;77.94
32638;BME280;19045;52.268;10.506;2022-08-19T08:26:51;100393.50;;;21.01;78.11
32638;BME280;19045;52.268;10.506;2022-08-19T08:29:18;100385.09;;;21.06;78.17
32638;BME280;19045;52.268;10.506;2022-08-19T08:31:45;100380.78;;;21.13;76.84
32638;BME280;19045;52.268;10.506;2022-08-19T08:34:13;100385.38;;;21.22;76.44
32638;BME280;19045;52.268;10.506;2022-08-19T08:36:42;100385.22;;;21.18;75.76
32638;BME280;19045;52.268;10.506;2022-08-19T08:39:11;100384.13;;;21.19;76.60
32638;BME280;19045;52.268;10.506;2022-08-19T08:41:45;100391.63;;;21.31;76.56
32638;BME280;19045;52.268;10.506;2022-08-19T08:44:16;100392.69;;;21.38;74.85
32638;BME280;19045;52.268;10.506;2022-08-19T08:46:47;100395.94;;;21.32;76.00
32638;BME280;19045;52.268;10.506;2022-08-19T08:49:24;100402.81;;;21.38;74.39
32638;BME280;19045;52.268;10.506;2022-08-19T08:51:59;100404.78;;;21.37;75.01
32638;BME280;19045;52.268;10.506;2022-08-19T08:54:32;100402.06;;;21.58;74.45
32638;BME280;19045;52.268;10.506;2022-08-19T08:57:04;100401.50;;;21.73;73.25
32638;BME280;19045;52.268;10.506;2022-08-19T08:59:34;100401.69;;;21.97;73.73
32638;BME280;19045;52.268;10.506;2022-08-19T09:02:02;100391.78;;;22.26;70.83
32638;BME280;19045;52.268;10.506;2022-08-19T09:04:28;100395.44;;;22.50;70.37
32638;BME280;19045;52.268;10.506;2022-08-19T09:07:02;100389.34;;;22.78;68.56
32638;BME280;19045;52.268;10.506;2022-08-19T09:09:38;100385.66;;;23.06;67.86
32638;BME280;19045;52.268;10.506;2022-08-19T09:12:17;100383.03;;;23.22;65.76
32638;BME280;19045;52.268;10.506;2022-08-19T09:14:51;100378.44;;;23.14;66.23
32638;BME280;19045;52.268;10.506;2022-08-19T09:17:25;100388.84;;;22.96;66.43
32638;BME280;19045;52.268;10.506;2022-08-19T09:19:57;100394.44;;;22.34;69.42
32638;BME280;19045;52.268;10.506;2022-08-19T09:22:27;100403.84;;;22.45;69.88
32638;BME280;19045;52.268;10.506;2022-08-19T09:24:55;100410.22;;;22.17;71.14
32638;BME280;19045;52.268;10.506;2022-08-19T09:27:24;100407.16;;;21.39;72.74
32638;BME280;19045;52.268;10.506;2022-08-19T09:29:52;100411.59;;;21.52;73.93
32638;BME280;19045;52.268;10.506;2022-08-19T09:32:19;100412.38;;;21.23;74.03
32638;BME280;19045;52.268;10.506;2022-08-19T09:34:46;100412.78;;;21.42;73.61
32638;BME280;19045;52.268;10.506;2022-08-19T09:37:13;100412.69;;;21.59;73.10
32638;BME280;19045;52.268;10.506;2022-08-19T09:39:40;100423.84;;;21.75;71.76
32638;BME280;19045;52.268;10.506;2022-08-19T09:42:08;100421.72;;;21.81;72.98
32638;BME280;19045;52.268;10.506;2022-08-19T09:44:40;100418.66;;;21.82;71.16
32638;BME280;19045;52.268;10.506;2022-08-19T09:47:09;100418.84;;;21.77;71.85
32638;BME280;19045;52.268;10.506;2022-08-19T09:49:37;100421.25;;;21.79;71.92
32638;BME280;19045;52.268;10.506;2022-08-19T09:52:05;100419.00;;;21.81;71.59
32638;BME280;19045;52.268;10.506;2022-08-19T09:54:33;100413.53;;;21.81;72.38
32638;BME280;19045;52.268;10.506;2022-08-19T09:57:00;100418.78;;;21.86;70.99
32638;BME280;19045;52.268;10.506;2022-08-19T09:59:28;100426.41;;;21.80;72.18
32638;BME280;19045;52.268;10.506;2022-08-19T10:01:56;100426.56;;;21.75;71.76
32638;BME280;19045;52.268;10.506;2022-08-19T10:04:23;100425.13;;;21.48;72.64
32638;BME280;19045;52.268;10.506;2022-08-19T10:07:10;100414.97;;;21.57;72.80
32638;BME280;19045;52.268;10.506;2022-08-19T10:09:37;100410.91;;;21.63;72.34
32638;BME280;19045;52.268;10.506;2022-08-19T10:12:06;100408.38;;;21.79;72.15
32638;BME280;19045;52.268;10.506;2022-08-19T10:14:34;100403.22;;;22.07;71.34
32638;BME280;19045;52.268;10.506;2022-08-19T10:17:02;100411.34;;;22.36;69.15
32638;BME280;19045;52.268;10.506;2022-08-19T10:19:29;100401.63;;;22.59;68.38
32638;BME280;19045;52.268;10.506;2022-08-19T10:22:03;100401.34;;;22.73;67.46
32638;BME280;19045;52.268;10.506;2022-08-19T10:24:29;100392.00;;;22.86;67.01
32638;BME280;19045;52.268;10.506;2022-08-19T10:26:56;100396.63;;;23.18;66.40
32638;BME280;19045;52.268;10.506;2022-08-19T10:29:23;100390.56;;;23.61;65.47
32638;BME280;19045;52.268;10.506;2022-08-19T10:31:50;100385.28;;;23.81;64.10
32638;BME280;19045;52.268;10.506;2022-08-19T10:34:19;100384.84;;;24.06;63.02
32638;BME280;19045;52.268;10.506;2022-08-19T10:36:46;100392.06;;;24.11;62.91
32638;BME280;19045;52.268;10.506;2022-08-19T10:39:13;100378.69;;;24.09;62.28
32638;BME280;19045;52.268;10.506;2022-08-19T10:41:40;100392.19;;;24.14;62.28
32638;BME280;19045;52.268;10.506;2022-08-19T10:44:11;100385.31;;;24.21;62.13
32638;BME280;19045;52.268;10.506;2022-08-19T10:46:40;100391.34;;;24.26;61.57
32638;BME280;19045;52.268;10.506;2022-08-19T10:49:09;100385.53;;;24.43;61.21
32638;BME280;19045;52.268;10.506;2022-08-19T10:51:38;100374.72;;;24.35;61.42
32638;BME280;19045;52.268;10.506;2022-08-19T10:54:22;100373.44;;;24.60;60.96
32638;BME280;19045;52.268;10.506;2022-08-19T10:57:09;100368.38;;;25.21;58.27
32638;BME280;19045;52.268;10.506;2022-08-19T10:59:35;100363.00;;;25.79;57.01
32638;BME280;19045;52.268;10.506;2022-08-19T11:02:04;100352.47;;;26.19;54.96
32638;BME280;19045;52.268;10.506;2022-08-19T11:04:32;100350.63;;;26.46;54.16
32638;BME280;19045;52.268;10.506;2022-08-19T11:07:00;100341.41;;;26.57;53.08
32638;BME280;19045;52.268;10.506;2022-08-19T11:09:27;100347.34;;;26.59;53.50
32638;BME280;19045;52.268;10.506;2022-08-19T11:11:54;100336.38;;;26.40;53.29
32638;BME280;19045;52.268;10.506;2022-08-19T11:14:22;100340.28;;;26.39;53.73
32638;BME280;19045;52.268;10.506;2022-08-19T11:16:51;100346.16;;;26.18;55.35
32638;BME280;19045;52.268;10.506;2022-08-19T11:19:21;100351.47;;;26.08;55.23
32638;BME280;19045;52.268;10.506;2022-08-19T11:21:50;100348.41;;;26.32;54.86
32638;BME280;19045;52.268;10.506;2022-08-19T11:24:20;100343.00;;;26.58;53.80
32638;BME280;19045;52.268;10.506;2022-08-19T11:26:48;100343.78;;;27.01;52.75
32638;BME280;19045;52.268;10.506;2022-08-19T11:29:17;100338.50;;;26.92;52.36
32638;BME280;19045;52.268;10.506;2022-08-19T11:31:46;100340.19;;;27.23;51.84
32638;BME280;19045;52.268;10.506;2022-08-19T11:34:17;100332.34;;;27.51;51.52
32638;BME280;19045;52.268;10.506;2022-08-19T11:36:46;100334.75;;;27.83;50.28
32638;BME280;19045;52.268;10.506;2022-08-19T11:39:15;100339.50;;;27.86;49.92
32638;BME280;19045;52.268;10.506;2022-08-19T11:41:44;100329.78;;;27.65;49.97
32638;BME280;19045;52.268;10.506;2022-08-19T11:44:10;100324.19;;;28.21;48.91
32638;BME280;19045;52.268;10.506;2022-08-19T11:46:39;100331.81;;;28.72;47.88
32638;BME280;19045;52.268;10.506;2022-08-19T11:49:06;100337.78;;;28.78;46.59
32638;BME280;19045;52.268;10.506;2022-08-19T11:51:34;100339.00;;;28.06;49.03
32638;BME280;19045;52.268;10.506;2022-08-19T11:54:03;100338.91;;;27.99;49.71
32638;BME280;19045;52.268;10.506;2022-08-19T11:56:31;100348.31;;;27.65;50.04
32638;BME280;19045;52.268;10.506;2022-08-19T11:59:00;100336.22;;;27.47;51.33
32638;BME280;19045;52.268;10.506;2022-08-19T12:01:27;100346.88;;;27.48;51.62
32638;BME280;19045;52.268;10.506;2022-08-19T12:03:55;100348.84;;;27.74;51.14
32638;BME280;19045;52.268;10.506;2022-08-19T12:06:25;100337.72;;;28.70;49.35
32638;BME280;19045;52.268;10.506;2022-08-19T12:08:54;100333.75;;;29.12;47.93
32638;BME280;19045;52.268;10.506;2022-08-19T12:11:22;100333.38;;;29.75;46.22
32638;BME280;19045;52.268;10.506;2022-08-19T12:13:49;100324.06;;;29.39;46.11
32638;BME280;19045;52.268;10.506;2022-08-19T12:16:19;100328.06;;;28.94;46.92
32638;BME280;19045;52.268;10.506;2022-08-19T12:18:46;100334.41;;;29.46;47.16
32638;BME280;19045;52.268;10.506;2022-08-19T12:21:14;100331.22;;;29.47;45.96
32638;BME280;19045;52.268;10.506;2022-08-19T12:23:41;100334.97;;;29.80;45.36
32638;BME280;19045;52.268;10.506;2022-08-19T12:26:09;100330.22;;;29.80;45.86
32638;BME280;19045;52.268;10.506;2022-08-19T12:28:37;100329.50;;;29.90;44.95
32638;BME280;19045;52.268;10.506;2022-08-19T12:31:04;100321.78;;;30.59;43.89
32638;BME280;19045;52.268;10.506;2022-08-19T12:33:33;100324.19;;;30.79;43.12
32638;BME280;19045;52.268;10.506;2022-08-19T12:36:01;100319.00;;;30.59;43.31
32638;BME280;19045;52.268;10.506;2022-08-19T12:38:29;100337.50;;;30.20;44.24
32638;BME280;19045;52.268;10.506;2022-08-19T12:40:57;100327.94;;;29.89;45.07
32638;BME280;19045;52.268;10.506;2022-08-19T12:43:24;100326.47;;;30.31;45.00
32638;BME280;19045;52.268;10.506;2022-08-19T12:45:51;100330.13;;;30.70;43.78
32638;BME280;19045;52.268;10.506;2022-08-19T12:48:18;100330.97;;;30.99;43.07